createdAt,value
2018-12-14T00:02:00.555Z,18.60
2018-12-14T00:04:28.745Z,18.13
2018-12-14T00:06:57.064Z,19.07
2018-12-14T00:09:25.163Z,18.93
2018-12-14T00:11:53.333Z,18.27
2018-12-14T00:14:21.526Z,19.83
2018-12-14T00:16:49.701Z,19.67
2018-12-14T00:19:17.867Z,18.17
2018-12-14T00:21:46.033Z,19.43
2018-12-14T00:24:14.901Z,21.30
2018-12-14T00:26:43.051Z,20.20
2018-12-14T00:29:11.154Z,19.67
2018-12-14T00:31:39.269Z,20.33
2018-12-14T00:34:07.372Z,20.17
2018-12-14T00:36:36.065Z,18.73
2018-12-14T00:39:05.199Z,19.50
2018-12-14T00:41:33.337Z,18.30
2018-12-14T00:44:01.458Z,19.20
2018-12-14T00:46:29.641Z,21.03
2018-12-14T00:48:57.792Z,19.83
2018-12-14T00:51:25.953Z,20.00
2018-12-14T00:53:54.145Z,20.53
2018-12-14T00:56:22.276Z,21.63
2018-12-14T00:58:50.375Z,19.93
2018-12-14T01:01:18.529Z,21.30
2018-12-14T01:03:46.637Z,20.80
2018-12-14T01:06:14.791Z,21.00
2018-12-14T01:08:42.912Z,20.83
2018-12-14T01:11:11.033Z,20.10
2018-12-14T01:13:39.181Z,21.00
2018-12-14T01:16:07.396Z,19.73
2018-12-14T01:18:35.516Z,19.40
2018-12-14T01:21:03.629Z,21.23
2018-12-14T01:23:31.734Z,20.87
2018-12-14T01:25:59.927Z,22.13
2018-12-14T01:28:28.049Z,21.63
2018-12-14T01:30:56.216Z,21.33
2018-12-14T01:33:24.780Z,21.43
2018-12-14T01:35:53.062Z,21.70
2018-12-14T01:38:21.577Z,22.93
2018-12-14T01:40:49.708Z,22.80
2018-12-14T01:43:17.805Z,22.47
2018-12-14T01:45:45.908Z,22.53
2018-12-14T01:48:14.256Z,22.97
2018-12-14T01:50:42.449Z,22.37
2018-12-14T01:53:10.533Z,22.40
2018-12-14T01:55:38.689Z,23.10
2018-12-14T01:58:06.867Z,25.27
2018-12-14T02:00:34.986Z,22.97
2018-12-14T02:03:03.101Z,24.80
2018-12-14T02:05:31.278Z,23.17
2018-12-14T02:07:59.385Z,23.20
2018-12-14T02:10:27.584Z,24.17
2018-12-14T02:12:55.705Z,24.17
2018-12-14T02:15:23.858Z,25.07
2018-12-14T02:17:52.000Z,23.63
2018-12-14T02:20:20.204Z,24.67
2018-12-14T02:22:49.008Z,24.17
2018-12-14T02:25:17.192Z,24.23
2018-12-14T02:27:45.367Z,25.20
2018-12-14T02:30:19.179Z,25.00
2018-12-14T02:32:47.295Z,24.97
2018-12-14T02:35:15.406Z,23.20
2018-12-14T02:37:44.043Z,24.27
2018-12-14T02:40:12.249Z,25.03
2018-12-14T02:42:40.507Z,23.63
2018-12-14T02:45:08.622Z,23.50
2018-12-14T02:47:36.749Z,26.93
2018-12-14T02:50:05.498Z,24.77
2018-12-14T02:52:33.666Z,24.70
2018-12-14T02:55:01.847Z,24.50
2018-12-14T02:57:29.940Z,24.07
2018-12-14T02:59:58.097Z,24.80
2018-12-14T03:02:26.212Z,24.40
2018-12-14T03:04:54.341Z,23.67
2018-12-14T03:07:22.454Z,24.17
2018-12-14T03:09:50.546Z,25.87
2018-12-14T03:12:18.829Z,24.33
2018-12-14T03:14:46.978Z,25.57
2018-12-14T03:17:15.694Z,23.93
2018-12-14T03:19:43.877Z,25.07
2018-12-14T03:22:13.264Z,25.80
2018-12-14T03:24:41.357Z,25.87
2018-12-14T03:27:09.480Z,26.23
2018-12-14T03:29:37.709Z,26.47
2018-12-14T03:32:05.863Z,26.30
2018-12-14T03:34:34.041Z,25.87
2018-12-14T03:37:02.182Z,24.93
2018-12-14T03:39:30.280Z,25.13
2018-12-14T03:41:58.374Z,26.63
2018-12-14T03:44:26.494Z,25.47
2018-12-14T03:46:54.700Z,25.67
2018-12-14T03:49:22.838Z,26.00
2018-12-14T03:51:50.978Z,26.27
2018-12-14T03:54:19.078Z,27.03
2018-12-14T03:56:47.288Z,27.43
2018-12-14T03:59:15.438Z,25.63
2018-12-14T04:01:43.544Z,27.00
2018-12-14T04:04:11.645Z,26.67
2018-12-14T04:06:39.798Z,28.00
2018-12-14T04:09:07.963Z,28.27
2018-12-14T04:11:36.147Z,27.63
2018-12-14T04:14:04.459Z,26.47
2018-12-14T04:16:32.581Z,27.10
2018-12-14T04:19:00.757Z,26.03
2018-12-14T04:21:28.934Z,28.07
2018-12-14T04:23:57.023Z,26.10
2018-12-14T04:26:25.168Z,26.13
2018-12-14T04:28:53.361Z,27.27
2018-12-14T04:31:21.485Z,26.17
2018-12-14T04:33:49.580Z,25.67
2018-12-14T04:36:17.749Z,26.27
2018-12-14T04:38:45.850Z,25.83
2018-12-14T04:41:13.953Z,24.53
2018-12-14T04:43:42.089Z,26.53
2018-12-14T04:46:10.235Z,25.97
2018-12-14T04:48:38.341Z,26.13
2018-12-14T04:51:06.514Z,25.57
2018-12-14T04:53:34.685Z,24.60
2018-12-14T04:56:02.809Z,25.97
2018-12-14T04:58:30.996Z,26.77
2018-12-14T05:00:59.107Z,24.80
2018-12-14T05:03:27.237Z,23.90
2018-12-14T05:05:55.361Z,26.17
2018-12-14T05:08:23.461Z,24.57
2018-12-14T05:10:51.711Z,25.47
2018-12-14T05:13:19.830Z,25.03
2018-12-14T05:15:48.002Z,24.77
2018-12-14T05:18:16.113Z,24.53
2018-12-14T05:20:44.598Z,24.10
2018-12-14T05:23:12.697Z,24.93
2018-12-14T05:25:40.898Z,25.80
2018-12-14T05:28:09.036Z,25.97
2018-12-14T05:30:37.150Z,24.47
2018-12-14T05:33:05.270Z,24.50
2018-12-14T05:35:33.388Z,24.07
2018-12-14T05:38:01.565Z,26.57
2018-12-14T05:40:29.826Z,24.80
2018-12-14T05:43:02.513Z,23.50
2018-12-14T05:45:28.046Z,23.67
2018-12-14T05:47:56.191Z,25.10
2018-12-14T05:50:24.338Z,24.77
2018-12-14T05:52:52.443Z,24.67
2018-12-14T05:55:20.682Z,22.90
2018-12-14T05:57:48.798Z,23.70
2018-12-14T06:00:17.094Z,24.10
2018-12-14T06:02:45.239Z,23.90
2018-12-14T06:05:13.427Z,24.53
2018-12-14T06:07:41.604Z,25.07
2018-12-14T06:10:09.725Z,24.13
2018-12-14T06:12:37.840Z,23.73
2018-12-14T06:15:06.148Z,25.00
2018-12-14T06:17:34.297Z,24.07
2018-12-14T06:20:02.426Z,24.30
2018-12-14T06:22:30.621Z,25.53
2018-12-14T06:24:58.738Z,22.77
2018-12-14T06:27:26.872Z,24.07
2018-12-14T06:29:55.054Z,24.50
2018-12-14T06:32:23.161Z,24.53
2018-12-14T06:34:51.265Z,25.60
2018-12-14T06:37:19.611Z,24.03
2018-12-14T06:39:47.709Z,26.40
2018-12-14T06:42:16.125Z,25.97
2018-12-14T06:44:44.376Z,25.17
2018-12-14T06:47:12.565Z,24.40
2018-12-14T06:49:40.715Z,25.57
2018-12-14T06:52:08.805Z,26.80
2018-12-14T06:54:37.349Z,26.47
2018-12-14T06:57:05.499Z,25.50
2018-12-14T06:59:33.629Z,27.43
2018-12-14T07:02:01.797Z,26.67
2018-12-14T07:04:29.996Z,26.50
2018-12-14T07:07:03.867Z,25.00
2018-12-14T07:09:28.349Z,25.17
2018-12-14T07:11:58.458Z,26.83
2018-12-14T07:14:26.581Z,25.57
2018-12-14T07:16:54.821Z,25.57
2018-12-14T07:19:23.004Z,26.43
2018-12-14T07:21:51.115Z,25.33
2018-12-14T07:24:19.239Z,24.77
2018-12-14T07:26:47.475Z,23.77
2018-12-14T07:29:15.648Z,23.87
2018-12-14T07:31:43.761Z,27.37
2018-12-14T07:34:11.961Z,24.83
2018-12-14T07:36:40.078Z,24.03
2018-12-14T07:39:08.204Z,25.97
2018-12-14T07:41:36.352Z,26.53
2018-12-14T07:44:04.485Z,23.53
2018-12-14T07:46:32.602Z,25.20
2018-12-14T07:49:00.729Z,26.63
2018-12-14T07:51:28.939Z,26.23
2018-12-14T07:53:57.088Z,24.73
2018-12-14T07:56:25.649Z,25.63
2018-12-14T07:58:54.082Z,25.90
2018-12-14T08:01:22.338Z,24.43
2018-12-14T08:03:50.492Z,24.83
2018-12-14T08:06:18.608Z,26.30
2018-12-14T08:08:46.929Z,24.77
2018-12-14T08:11:15.078Z,24.17
2018-12-14T08:13:43.284Z,24.00
2018-12-14T08:16:11.434Z,24.77
2018-12-14T08:18:39.538Z,25.53
2018-12-14T08:21:07.787Z,25.20
2018-12-14T08:23:35.987Z,25.67
2018-12-14T08:26:04.094Z,25.00
2018-12-14T08:28:32.242Z,24.57
2018-12-14T08:31:00.401Z,23.30
2018-12-14T08:33:28.525Z,23.80
2018-12-14T08:35:56.612Z,23.60
2018-12-14T08:38:24.823Z,25.37
2018-12-14T08:40:52.932Z,24.07
2018-12-14T08:43:21.049Z,25.70
2018-12-14T08:45:49.162Z,26.47
2018-12-14T08:48:17.285Z,25.93
2018-12-14T08:50:45.404Z,25.73
2018-12-14T08:53:13.549Z,25.53
2018-12-14T08:55:41.724Z,25.17
2018-12-14T08:58:09.876Z,25.13
2018-12-14T09:00:37.984Z,25.33
2018-12-14T09:03:06.114Z,25.83
2018-12-14T09:05:34.735Z,25.73
2018-12-14T09:08:03.326Z,26.67
2018-12-14T09:10:31.464Z,26.03
2018-12-14T09:12:59.651Z,25.10
2018-12-14T09:15:27.810Z,26.03
2018-12-14T09:17:55.914Z,26.03
2018-12-14T09:20:24.082Z,27.20
2018-12-14T09:22:52.681Z,26.43
2018-12-14T09:25:20.856Z,25.47
2018-12-14T09:27:49.030Z,25.60
2018-12-14T09:30:17.261Z,26.17
2018-12-14T09:32:45.461Z,26.07
2018-12-14T09:35:13.575Z,25.27
2018-12-14T09:37:41.703Z,25.90
2018-12-14T09:40:09.869Z,25.00
2018-12-14T09:42:38.046Z,26.83
2018-12-14T09:45:06.406Z,27.07
2018-12-14T09:47:34.492Z,24.60
2018-12-14T09:50:02.642Z,24.83
2018-12-14T09:52:30.749Z,25.33
2018-12-14T09:54:58.928Z,25.50
2018-12-14T09:57:27.021Z,26.60
2018-12-14T09:59:55.186Z,24.40
2018-12-14T10:02:23.335Z,23.93
2018-12-14T10:04:51.476Z,25.47
2018-12-14T10:07:19.575Z,24.63
2018-12-14T10:09:47.679Z,25.70
2018-12-14T10:12:15.780Z,24.43
2018-12-14T10:14:43.981Z,25.87
2018-12-14T10:17:12.093Z,25.63
2018-12-14T10:19:40.206Z,25.53
2018-12-14T10:22:08.335Z,25.00
2018-12-14T10:24:36.617Z,24.53
2018-12-14T10:27:04.726Z,25.00
2018-12-14T10:29:32.924Z,23.57
2018-12-14T10:32:01.057Z,23.47
2018-12-14T10:34:29.382Z,24.07
2018-12-14T10:36:57.537Z,24.57
2018-12-14T10:39:25.703Z,24.13
2018-12-14T10:41:53.854Z,24.03
2018-12-14T10:44:22.059Z,25.67
2018-12-14T10:46:50.208Z,24.13
2018-12-14T10:49:18.309Z,25.70
2018-12-14T10:51:46.640Z,24.90
2018-12-14T10:54:14.756Z,24.53
2018-12-14T10:56:42.840Z,25.20
2018-12-14T10:59:10.968Z,25.57
2018-12-14T11:01:44.617Z,24.53
2018-12-14T11:04:12.743Z,26.63
2018-12-14T11:06:40.834Z,24.33
2018-12-14T11:09:08.935Z,23.23
2018-12-14T11:11:37.056Z,24.23
2018-12-14T11:14:05.241Z,22.97
2018-12-14T11:16:33.425Z,24.67
2018-12-14T11:19:01.610Z,23.67
2018-12-14T11:21:29.894Z,23.87
2018-12-14T11:23:58.068Z,24.07
2018-12-14T11:26:26.226Z,23.70
2018-12-14T11:28:54.385Z,24.27
2018-12-14T11:31:22.577Z,23.40
2018-12-14T11:33:50.772Z,23.27
2018-12-14T11:36:19.019Z,23.23
2018-12-14T11:38:47.330Z,23.03
2018-12-14T11:41:18.433Z,22.57
2018-12-14T11:43:45.607Z,22.90
2018-12-14T11:46:14.312Z,23.63
2018-12-14T11:48:42.479Z,23.20
2018-12-14T11:51:11.807Z,23.50
2018-12-14T11:53:39.928Z,23.57
2018-12-14T11:56:08.149Z,23.90
2018-12-14T11:58:36.323Z,21.67
2018-12-14T12:01:04.494Z,22.47
2018-12-14T12:03:32.662Z,23.43
2018-12-14T12:06:00.902Z,21.83
2018-12-14T12:08:29.100Z,23.43
2018-12-14T12:10:57.230Z,23.47
2018-12-14T12:13:25.334Z,22.23
2018-12-14T12:15:53.509Z,23.83
2018-12-14T12:18:21.669Z,23.00
2018-12-14T12:20:49.857Z,23.97
2018-12-14T12:23:18.035Z,22.67
2018-12-14T12:25:46.201Z,22.50
2018-12-14T12:28:14.462Z,21.70
2018-12-14T12:30:42.617Z,22.83
2018-12-14T12:33:10.742Z,22.03
2018-12-14T12:35:38.876Z,22.03
2018-12-14T12:38:06.989Z,21.53
2018-12-14T12:40:35.110Z,22.37
2018-12-14T12:43:03.273Z,23.43
2018-12-14T12:45:31.446Z,21.90
2018-12-14T12:47:59.627Z,22.33
2018-12-14T12:50:27.785Z,22.37
2018-12-14T12:52:55.965Z,22.03
2018-12-14T12:55:24.149Z,22.50
2018-12-14T12:57:52.284Z,21.57
2018-12-14T13:00:20.402Z,22.17
2018-12-14T13:02:48.546Z,21.00
2018-12-14T13:05:16.650Z,21.80
2018-12-14T13:07:44.798Z,22.53
2018-12-14T13:10:12.984Z,21.97
2018-12-14T13:12:41.157Z,23.00
2018-12-14T13:15:09.606Z,21.97
2018-12-14T13:17:37.761Z,21.40
2018-12-14T13:20:05.958Z,21.33
2018-12-14T13:22:34.098Z,22.37
2018-12-14T13:25:02.218Z,21.73
2018-12-14T13:27:30.392Z,21.20
2018-12-14T13:29:58.590Z,20.60
2018-12-14T13:32:26.677Z,21.70
2018-12-14T13:34:54.860Z,21.13
2018-12-14T13:37:23.042Z,20.37
2018-12-14T13:39:51.144Z,21.17
2018-12-14T13:42:19.238Z,21.67
2018-12-14T13:44:47.661Z,19.90
2018-12-14T13:47:15.897Z,20.87
2018-12-14T13:49:44.091Z,20.07
2018-12-14T13:52:12.235Z,20.53
2018-12-14T13:54:40.422Z,19.53
2018-12-14T13:57:08.597Z,20.50
2018-12-14T13:59:36.852Z,20.07
2018-12-14T14:02:05.175Z,19.80
2018-12-14T14:04:35.873Z,19.90
2018-12-14T14:07:03.452Z,18.47
2018-12-14T14:09:31.934Z,18.83
2018-12-14T14:12:00.074Z,19.27
2018-12-14T14:14:28.197Z,18.53
2018-12-14T14:16:56.681Z,18.63
2018-12-14T14:19:25.570Z,19.47
2018-12-14T14:21:53.739Z,18.27
2018-12-14T14:24:21.897Z,19.43
2018-12-14T14:26:50.093Z,18.40
2018-12-14T14:29:18.259Z,18.50
2018-12-14T14:31:46.529Z,19.27
2018-12-14T14:34:14.657Z,19.57
2018-12-14T14:36:42.828Z,17.57
2018-12-14T14:39:10.932Z,18.60
2018-12-14T14:41:39.051Z,17.80
2018-12-14T14:44:07.205Z,18.47
2018-12-14T14:46:35.326Z,18.60
2018-12-14T14:49:03.445Z,18.83
2018-12-14T14:51:31.833Z,19.37
2018-12-14T14:54:00.029Z,18.43
2018-12-14T14:56:28.260Z,18.77
2018-12-14T14:58:56.538Z,18.43
2018-12-14T15:01:24.708Z,19.50
2018-12-14T15:03:52.834Z,19.30
2018-12-14T15:06:20.951Z,18.63
2018-12-14T15:08:49.324Z,18.17
2018-12-14T15:11:17.457Z,18.43
2018-12-14T15:13:45.579Z,19.00
2018-12-14T15:16:13.715Z,18.93
2018-12-14T15:18:41.808Z,20.23
2018-12-14T15:21:09.985Z,19.13
2018-12-14T15:23:38.226Z,20.00
2018-12-14T15:26:06.437Z,18.63
2018-12-14T15:28:34.546Z,18.70
2018-12-14T15:31:03.728Z,18.53
2018-12-14T15:33:31.897Z,18.93
2018-12-14T15:36:00.041Z,21.13
2018-12-14T15:38:28.134Z,19.77
2018-12-14T15:40:56.293Z,20.17
2018-12-14T15:43:24.417Z,20.60
2018-12-14T15:45:52.561Z,18.90
2018-12-14T15:48:20.734Z,17.90
2018-12-14T15:50:48.890Z,20.10
2018-12-14T15:53:16.989Z,19.77
2018-12-14T15:55:45.130Z,20.23
2018-12-14T15:58:13.311Z,19.47
2018-12-14T16:00:41.434Z,20.20
2018-12-14T16:03:09.578Z,20.13
2018-12-14T16:05:37.714Z,20.07
2018-12-14T16:08:06.015Z,71.70
2018-12-14T16:10:34.149Z,42.07
2018-12-14T16:19:50.830Z,26.53
2018-12-14T16:22:19.162Z,20.87
2018-12-14T16:24:47.270Z,19.57
2018-12-14T16:27:15.463Z,19.80
2018-12-14T16:29:43.604Z,19.90
2018-12-14T16:32:12.002Z,21.17
2018-12-14T16:34:40.261Z,19.73
2018-12-14T16:37:08.467Z,20.70
2018-12-14T16:39:36.760Z,19.27
2018-12-14T16:42:05.390Z,18.80
2018-12-14T16:44:33.590Z,20.00
2018-12-14T16:47:01.786Z,20.17
2018-12-14T16:49:29.945Z,20.73
2018-12-14T16:51:58.043Z,21.20
2018-12-14T16:54:26.177Z,18.50
2018-12-14T16:56:54.326Z,19.03
2018-12-14T16:59:22.429Z,18.93
2018-12-14T17:01:50.604Z,19.37
2018-12-14T17:04:18.759Z,18.30
2018-12-14T17:06:46.856Z,20.40
2018-12-14T17:09:15.034Z,20.13
2018-12-14T17:11:43.252Z,19.77
2018-12-14T17:14:11.361Z,19.37
2018-12-14T17:16:39.468Z,19.40
2018-12-14T17:19:07.570Z,18.63
2018-12-14T17:21:35.669Z,19.70
2018-12-14T17:24:03.892Z,18.60
2018-12-14T17:26:32.037Z,20.07
2018-12-14T17:29:00.145Z,20.33
2018-12-14T17:31:28.370Z,20.20
2018-12-14T17:33:56.531Z,19.93
2018-12-14T17:36:24.642Z,18.50
2018-12-14T17:38:52.796Z,20.43
2018-12-14T17:41:21.001Z,18.87
2018-12-14T17:43:49.234Z,20.07
2018-12-14T17:46:17.453Z,20.00
2018-12-14T17:48:45.575Z,20.63
2018-12-14T17:51:13.713Z,20.50
2018-12-14T17:53:41.968Z,20.17
2018-12-14T17:56:10.140Z,19.73
2018-12-14T17:58:38.278Z,19.60
2018-12-14T18:01:06.504Z,21.53
2018-12-14T18:03:34.629Z,19.53
2018-12-14T18:06:02.762Z,19.73
2018-12-14T18:08:30.912Z,19.43
2018-12-14T18:10:59.068Z,19.13
2018-12-14T18:13:27.192Z,20.43
2018-12-14T18:15:55.303Z,20.23
2018-12-14T18:18:23.421Z,19.43
2018-12-14T18:20:51.530Z,19.33
2018-12-14T18:23:19.662Z,19.83
2018-12-14T18:25:47.897Z,20.07
2018-12-14T18:28:15.985Z,19.93
2018-12-14T18:30:44.142Z,19.83
2018-12-14T18:33:12.327Z,20.20
2018-12-14T18:35:40.658Z,22.33
2018-12-14T18:38:08.802Z,20.57
2018-12-14T18:40:37.097Z,20.57
2018-12-14T18:43:05.246Z,21.33
2018-12-14T18:45:33.467Z,21.83
2018-12-14T18:48:01.784Z,21.30
2018-12-14T18:50:29.878Z,22.13
2018-12-14T18:52:58.036Z,22.63
2018-12-14T18:55:26.173Z,23.03
2018-12-14T18:57:54.448Z,22.63
2018-12-14T19:00:22.569Z,22.43
2018-12-14T19:02:50.764Z,22.17
2018-12-14T19:05:19.007Z,24.40
2018-12-14T19:07:47.191Z,24.63
2018-12-14T19:10:15.466Z,30.33
2018-12-14T19:12:43.606Z,25.70
2018-12-14T19:15:11.902Z,25.50
2018-12-14T19:17:40.032Z,24.80
2018-12-14T19:20:08.165Z,25.40
2018-12-14T19:22:36.318Z,25.47
2018-12-14T19:25:04.800Z,25.73
2018-12-14T19:27:32.945Z,24.67
2018-12-14T19:30:01.174Z,24.30
2018-12-14T19:32:29.694Z,24.17
2018-12-14T19:34:57.887Z,23.83
2018-12-14T19:37:26.059Z,25.17
2018-12-14T19:39:54.266Z,24.63
2018-12-14T19:42:22.441Z,24.33
2018-12-14T19:44:50.581Z,25.37
2018-12-14T19:47:18.947Z,23.77
2018-12-14T19:49:47.286Z,23.73
2018-12-14T19:52:15.840Z,23.40
2018-12-14T19:54:44.091Z,23.47
2018-12-14T19:57:12.478Z,23.73
2018-12-14T19:59:40.627Z,23.10
2018-12-14T20:02:08.876Z,24.77
2018-12-14T20:04:36.986Z,23.53
2018-12-14T20:07:05.347Z,25.13
2018-12-14T20:09:33.497Z,27.00
2018-12-14T20:12:01.630Z,24.77
2018-12-14T20:14:29.797Z,26.77
2018-12-14T20:16:57.916Z,26.40
2018-12-14T20:19:26.089Z,26.70
2018-12-14T20:21:54.237Z,26.83
2018-12-14T20:24:22.573Z,27.17
2018-12-14T20:26:50.788Z,27.57
2018-12-14T20:29:19.007Z,25.20
2018-12-14T20:31:47.152Z,23.80
2018-12-14T20:34:15.314Z,23.60
2018-12-14T20:36:43.480Z,22.53
2018-12-14T20:39:11.770Z,22.70
2018-12-14T20:41:39.898Z,23.43
2018-12-14T20:44:08.109Z,22.30
2018-12-14T20:46:36.229Z,22.77
2018-12-14T20:49:04.445Z,21.73
2018-12-14T20:51:32.615Z,22.53
2018-12-14T20:54:00.784Z,22.47
2018-12-14T20:56:28.980Z,22.53
2018-12-14T20:58:57.148Z,22.33
2018-12-14T21:01:25.294Z,22.13
2018-12-14T21:03:53.406Z,22.43
2018-12-14T21:06:21.507Z,21.93
2018-12-14T21:08:49.641Z,22.90
2018-12-14T21:11:17.739Z,22.70
2018-12-14T21:13:45.909Z,23.63
2018-12-14T21:16:14.109Z,21.00
2018-12-14T21:18:42.238Z,21.30
2018-12-14T21:21:10.364Z,20.77
2018-12-14T21:23:38.505Z,20.30
2018-12-14T21:26:06.657Z,20.60
2018-12-14T21:28:34.891Z,19.97
2018-12-14T21:31:03.932Z,19.93
2018-12-14T21:33:32.144Z,20.07
2018-12-14T21:36:00.298Z,19.73
2018-12-14T21:38:28.444Z,19.97
2018-12-14T21:40:56.635Z,20.73
2018-12-14T21:43:24.738Z,22.03
2018-12-14T21:45:53.016Z,21.57
2018-12-14T21:48:21.160Z,21.27
2018-12-14T21:50:49.335Z,20.13
2018-12-14T21:53:17.505Z,20.03
2018-12-14T21:55:45.679Z,19.17
2018-12-14T21:58:13.866Z,20.43
2018-12-14T22:00:42.505Z,21.77
2018-12-14T22:03:10.650Z,19.80
2018-12-14T22:05:38.785Z,21.67
2018-12-14T22:08:06.946Z,21.80
2018-12-14T22:10:35.157Z,20.50
2018-12-14T22:13:03.285Z,21.57
2018-12-14T22:15:31.399Z,21.07
2018-12-14T22:17:59.624Z,21.07
2018-12-14T22:20:27.721Z,20.90
2018-12-14T22:22:56.401Z,22.93
2018-12-14T22:25:24.550Z,22.80
2018-12-14T22:27:52.748Z,23.17
2018-12-14T22:30:20.892Z,22.77
2018-12-14T22:32:49.105Z,23.20
2018-12-14T22:35:17.244Z,21.97
2018-12-14T22:37:45.442Z,21.77
2018-12-14T22:40:13.605Z,22.77
2018-12-14T22:42:41.755Z,21.50
2018-12-14T22:45:10.148Z,25.00
2018-12-14T22:47:38.300Z,22.50
2018-12-14T22:50:06.445Z,22.70
2018-12-14T22:52:34.609Z,22.00
2018-12-14T22:55:02.871Z,23.57
2018-12-14T22:57:31.013Z,23.87
2018-12-14T22:59:59.229Z,22.40
2018-12-14T23:02:27.793Z,23.60
2018-12-14T23:04:55.968Z,22.57
2018-12-14T23:07:24.135Z,21.67
2018-12-14T23:09:52.297Z,20.90
2018-12-14T23:12:20.477Z,20.67
2018-12-14T23:14:48.985Z,21.27
2018-12-14T23:17:17.177Z,22.13
2018-12-14T23:19:45.362Z,21.53
2018-12-14T23:22:13.473Z,22.77
2018-12-14T23:24:41.630Z,21.73
2018-12-14T23:27:09.740Z,22.20
2018-12-14T23:29:37.846Z,22.40
2018-12-14T23:32:06.012Z,20.60
2018-12-14T23:34:34.108Z,22.10
2018-12-14T23:37:02.250Z,22.80
2018-12-14T23:39:30.362Z,22.23
2018-12-14T23:41:58.474Z,21.77
2018-12-14T23:44:26.661Z,22.97
2018-12-14T23:46:58.844Z,21.30
2018-12-14T23:49:24.877Z,21.07
2018-12-14T23:51:53.025Z,20.87
2018-12-14T23:54:21.136Z,18.40
2018-12-14T23:56:49.289Z,18.27
2018-12-14T23:59:17.411Z,18.57
